Larry Tilley — WY2160 — position and weather

sailwx.info

Track history (hours):
 
Tides and Currents Weather Stations Pressure Air Temp Water Temp Dewpoint Dewpoint Depression Visibility Wind Speed Wind Dir Waves Ship Positions

Larry Tilley

Owner: SOUTHERN TOWING COMPANY LLC., MEMPHIS, TN. More information available from US FCC via Universal Licensing System and Coast Guard Vessel Documentation Center.

Last reported at 2017-Nov-15 10:24 UTC. Time now 2017-Nov-21 23:17 UTC.
Position N 32°45' W 091°09'.

; draft 2.7 m.

Type: Towing. MMSI: 366919230.

Date/timePositionNaut miles runAvg speedWind from/ knotsBaromVisibWave heightAir tempDewpointWater temp
2017-Nov-15 10:24N 32°45' W 091°09'4 3.2
2017-Nov-15 09:01N 32°44' W 091°04'0 3.4
2017-Nov-15 08:55N 32°44' W 091°04'0 0.4
2017-Nov-15 08:30N 32°44' W 091°04'0 0.2
2017-Nov-15 08:00N 32°44' W 091°04'5 2.8
2017-Nov-15 06:19N 32°40' W 091°07'1 4.0
2017-Nov-15 06:01N 32°40' W 091°08'2 3.5
2017-Nov-15 05:30N 32°38' W 091°09'1 2.4
2017-Nov-15 05:01N 32°37' W 091°09'1 2.7
2017-Nov-15 04:30N 32°36' W 091°08'2 3.8
2017-Nov-15 04:00N 32°34' W 091°07'2 3.5
2017-Nov-15 03:30N 32°33' W 091°06'2 4.1
2017-Nov-15 03:01N 32°31' W 091°07'1 1.4
2017-Nov-15 02:31N 32°30' W 091°07'2 3.7
2017-Nov-15 02:01N 32°28' W 091°07'2 4.0
2017-Nov-15 01:31N 32°27' W 091°05'2 4.2
2017-Nov-15 01:01N 32°26' W 091°03'2 4.3
2017-Nov-15 00:31N 32°25' W 091°00'2 3.6
2017-Nov-15 00:01N 32°24' W 090°59'2 4.1
2017-Nov-14 23:31N 32°22' W 091°00'2 3.9
2017-Nov-14 23:01N 32°21' W 090°58'1 2.4
2017-Nov-14 22:31N 32°21' W 090°57'2 3.7
2017-Nov-14 22:01N 32°21' W 090°55'2 3.9
2017-Nov-14 21:31N 32°19' W 090°54'1 2.4
2017-Nov-14 21:01N 32°18' W 090°55'2 3.4
2017-Nov-14 20:31N 32°17' W 090°57'2 3.5
2017-Nov-14 20:01N 32°15' W 090°58'2 3.8
2017-Nov-14 19:31N 32°14' W 090°59'2 4.3
2017-Nov-14 19:01N 32°11' W 090°60'2 4.0
2017-Nov-14 18:27N 32°09' W 091°00'2 4.0
2017-Nov-14 18:00N 32°08' W 091°01'2 3.5
2017-Nov-14 17:30N 32°07' W 091°03'2 4.1
2017-Nov-14 16:59N 32°08' W 091°05'2 3.5
2017-Nov-14 16:31N 32°07' W 091°07'6 4.2
2017-Nov-14 15:08N 32°02' W 091°04'1 5.7
2017-Nov-14 14:59N 32°01' W 091°05'6 4.2
2017-Nov-14 13:35N 31°58' W 091°11'0 4.3
2017-Nov-14 13:31N 31°58' W 091°11'8 4.1
2017-Nov-14 11:28N 31°51' W 091°17'  
2017-Nov-09 19:26N 32°00' W 091°05'5 7.9
2017-Nov-09 18:51N 32°05' W 091°04'3 8.6
2017-Nov-09 18:31N 32°07' W 091°07'4 7.2
2017-Nov-09 18:00N 32°07' W 091°02'4 7.8
2017-Nov-09 17:31N 32°10' W 091°00'4 8.8
2017-Nov-09 17:01N 32°15' W 090°59'4 8.7
2017-Nov-09 16:31N 32°18' W 090°55'3 5.9
2017-Nov-09 16:01N 32°21' W 090°56'4 8.0
2017-Nov-09 15:31N 32°22' W 091°00'4 7.7
2017-Nov-09 15:01N 32°25' W 091°01'4 8.5
2017-Nov-09 14:31N 32°27' W 091°05'3 5.6
2017-Nov-09 14:01N 32°29' W 091°07'0 0.0
2017-Nov-09 13:30N 32°29' W 091°07'0 0.1
2017-Nov-09 13:01N 32°29' W 091°07'0 0.1
2017-Nov-09 12:31N 32°29' W 091°07'0 0.0
2017-Nov-09 12:01N 32°29' W 091°07'0 0.0
2017-Nov-09 11:31N 32°29' W 091°07'0 0.0
2017-Nov-09 11:01N 32°29' W 091°07'0 0.7
2017-Nov-09 10:31N 32°30' W 091°07'0 0.0
2017-Nov-09 10:01N 32°30' W 091°07'0 0.0
2017-Nov-09 09:29N 32°30' W 091°07'0 0.0
2017-Nov-09 09:01N 32°30' W 091°07'0 0.0
2017-Nov-09 08:31N 32°30' W 091°07'0 0.0
2017-Nov-09 08:01N 32°30' W 091°07'0 0.0
2017-Nov-09 07:31N 32°30' W 091°07'0 0.0
2017-Nov-09 07:00N 32°30' W 091°07'0 0.0
2017-Nov-09 06:31N 32°30' W 091°07'0 0.0
2017-Nov-09 06:01N 32°30' W 091°07'0 0.0
2017-Nov-09 05:30N 32°30' W 091°07'0 0.0
2017-Nov-09 05:01N 32°30' W 091°07'0 0.0
2017-Nov-09 04:31N 32°30' W 091°07'0 0.0
2017-Nov-09 04:00N 32°30' W 091°07'0 0.0
2017-Nov-09 03:28N 32°30' W 091°07'0 0.0
2017-Nov-09 03:00N 32°30' W 091°07'0 0.0
2017-Nov-09 02:31N 32°30' W 091°07'0 0.0
2017-Nov-09 02:01N 32°30' W 091°07'0 0.0
2017-Nov-09 01:30N 32°30' W 091°07'0 0.0
2017-Nov-09 01:01N 32°30' W 091°07'0 0.0
2017-Nov-09 00:31N 32°30' W 091°07'0 0.0
2017-Nov-09 00:01N 32°30' W 091°07'0 0.0
2017-Nov-08 23:31N 32°30' W 091°07'0 0.0
2017-Nov-08 23:01N 32°30' W 091°07'0 0.0
2017-Nov-08 22:31N 32°30' W 091°07'0 0.0
2017-Nov-08 22:01N 32°30' W 091°07'0 0.0
2017-Nov-08 21:31N 32°30' W 091°07'0 0.0
2017-Nov-08 21:01N 32°30' W 091°07'0 0.6
2017-Nov-08 20:31N 32°29' W 091°07'0 0.2
2017-Nov-08 20:01N 32°29' W 091°07'0 0.8
2017-Nov-08 19:31N 32°30' W 091°07'0 0.1
2017-Nov-08 19:01N 32°30' W 091°07'0 0.0
2017-Nov-08 18:31N 32°30' W 091°07'0 0.0
2017-Nov-08 18:01N 32°30' W 091°07'0 0.0
2017-Nov-08 17:31N 32°30' W 091°07'0 0.0
2017-Nov-08 17:00N 32°30' W 091°07'0 0.0
2017-Nov-08 16:31N 32°30' W 091°07'0 0.0
2017-Nov-08 16:01N 32°30' W 091°07'0 0.0
2017-Nov-08 15:31N 32°30' W 091°07'0 0.0
2017-Nov-08 15:01N 32°30' W 091°07'0 0.0
2017-Nov-08 14:31N 32°30' W 091°07'0 0.0
2017-Nov-08 14:01N 32°30' W 091°07'0 0.0
2017-Nov-08 13:31N 32°30' W 091°07'0 0.0
2017-Nov-08 13:01N 32°30' W 091°07'0 0.0
2017-Nov-08 12:31N 32°30' W 091°07'0 0.0
2017-Nov-08 12:01N 32°30' W 091°07'0 0.0
2017-Nov-08 11:31N 32°30' W 091°07'0 0.0
2017-Nov-08 11:01N 32°30' W 091°07'0 0.0
2017-Nov-08 10:31N 32°30' W 091°07'0 0.0
2017-Nov-08 10:01N 32°30' W 091°07'0 0.0
2017-Nov-08 09:31N 32°30' W 091°07'0 0.0
2017-Nov-08 09:00N 32°30' W 091°07'0 0.0
2017-Nov-08 08:31N 32°30' W 091°07'0 0.0
2017-Nov-08 08:01N 32°30' W 091°07'0 0.0
2017-Nov-08 07:31N 32°30' W 091°07'0 0.0
2017-Nov-08 07:01N 32°30' W 091°07'0 0.0
2017-Nov-08 06:31N 32°30' W 091°07'0 0.0
2017-Nov-08 06:01N 32°30' W 091°07'0 0.0
2017-Nov-08 05:31N 32°30' W 091°07'0 0.0
2017-Nov-08 05:01N 32°30' W 091°07'0 0.0
2017-Nov-08 04:31N 32°30' W 091°07'0 0.0
2017-Nov-08 04:01N 32°30' W 091°07'0 0.0
2017-Nov-08 03:31N 32°30' W 091°07'0 0.0
2017-Nov-08 03:01N 32°30' W 091°07'0 0.0
2017-Nov-08 02:31N 32°30' W 091°07'0 0.0
2017-Nov-08 02:01N 32°30' W 091°07'0 0.0
2017-Nov-08 01:31N 32°30' W 091°07'0 0.0
2017-Nov-08 01:01N 32°30' W 091°07'0 0.0
2017-Nov-08 00:31N 32°30' W 091°07'0 0.0
2017-Nov-08 00:01N 32°30' W 091°07'0 0.0
2017-Nov-07 23:30N 32°30' W 091°07'0 0.1
2017-Nov-07 23:00N 32°30' W 091°07'0 0.0
2017-Nov-07 22:31N 32°30' W 091°07'1 1.4
2017-Nov-07 22:01N 32°29' W 091°07'0 0.1
2017-Nov-07 21:30N 32°29' W 091°07'1 1.5
2017-Nov-07 21:01N 32°30' W 091°07'0 0.0
2017-Nov-07 20:31N 32°30' W 091°07'0 0.0
2017-Nov-07 20:01N 32°30' W 091°07'0 0.0
2017-Nov-07 19:31N 32°30' W 091°07'0 0.0
2017-Nov-07 19:00N 32°30' W 091°07'0 0.0
2017-Nov-07 18:31N 32°30' W 091°07'0 0.0
2017-Nov-07 18:00N 32°30' W 091°07'0 0.0
2017-Nov-07 17:31N 32°30' W 091°07'0 0.0
2017-Nov-07 17:01N 32°30' W 091°07'0 0.0
2017-Nov-07 16:31N 32°30' W 091°07'0 0.0
2017-Nov-07 16:01N 32°30' W 091°07'0 0.0
2017-Nov-07 15:31N 32°30' W 091°07'0 0.0
2017-Nov-07 15:01N 32°30' W 091°07'0 0.0
2017-Nov-07 14:31N 32°30' W 091°07'0 0.0
2017-Nov-07 14:01N 32°30' W 091°07'0 0.0
2017-Nov-07 13:30N 32°30' W 091°07'0 0.0
2017-Nov-07 13:01N 32°30' W 091°07'0 0.0
2017-Nov-07 12:31N 32°30' W 091°07'0 0.0
2017-Nov-07 12:01N 32°30' W 091°07'0 0.0
2017-Nov-07 11:31N 32°30' W 091°07'0 0.0
2017-Nov-07 11:00N 32°30' W 091°07'0 0.0
2017-Nov-07 10:31N 32°30' W 091°07'0 0.0
2017-Nov-07 10:01N 32°30' W 091°07'0 0.0
2017-Nov-07 09:30N 32°30' W 091°07'0 0.0
2017-Nov-07 09:01N 32°30' W 091°07'0 0.0
2017-Nov-07 08:31N 32°30' W 091°07'0 0.0
2017-Nov-07 08:01N 32°30' W 091°07'0 0.0
2017-Nov-07 07:31N 32°30' W 091°07'0 0.0
2017-Nov-07 07:01N 32°30' W 091°07'0 0.0
2017-Nov-07 06:30N 32°30' W 091°07'0 0.0
2017-Nov-07 06:00N 32°30' W 091°07'1 1.2
2017-Nov-07 05:31N 32°29' W 091°07'0 0.0
2017-Nov-07 05:01N 32°29' W 091°07'0 0.0
2017-Nov-07 04:31N 32°29' W 091°07'0 0.1
2017-Nov-07 04:01N 32°29' W 091°07'1 2.6
2017-Nov-07 03:30N 32°30' W 091°07'4 8.0
2017-Nov-07 03:00N 32°34' W 091°07'5 8.0
2017-Nov-07 02:22N 32°39' W 091°09'  
Track history (hours):
 
Tides and Currents Weather Stations Pressure Air Temp Water Temp Dewpoint Dewpoint Depression Visibility Wind Speed Wind Dir Waves Ship Positions

Larry Tilley

Owner: SOUTHERN TOWING COMPANY LLC., MEMPHIS, TN. More information available from US FCC via Universal Licensing System and Coast Guard Vessel Documentation Center.

Last reported at 2017-Nov-15 10:24 UTC. Time now 2017-Nov-21 23:17 UTC.
Position N 32°45' W 091°09'.

; draft 2.7 m.

Type: Towing. MMSI: 366919230.

Date/timePositionNaut miles runAvg speedWind from/ knotsBaromVisibWave heightAir tempDewpointWater temp
2017-Nov-15 10:24N 32°45' W 091°09'4 3.2
2017-Nov-15 09:01N 32°44' W 091°04'0 3.4
2017-Nov-15 08:55N 32°44' W 091°04'0 0.4
2017-Nov-15 08:30N 32°44' W 091°04'0 0.2
2017-Nov-15 08:00N 32°44' W 091°04'5 2.8
2017-Nov-15 06:19N 32°40' W 091°07'1 4.0
2017-Nov-15 06:01N 32°40' W 091°08'2 3.5
2017-Nov-15 05:30N 32°38' W 091°09'1 2.4
2017-Nov-15 05:01N 32°37' W 091°09'1 2.7
2017-Nov-15 04:30N 32°36' W 091°08'2 3.8
2017-Nov-15 04:00N 32°34' W 091°07'2 3.5
2017-Nov-15 03:30N 32°33' W 091°06'2 4.1
2017-Nov-15 03:01N 32°31' W 091°07'1 1.4
2017-Nov-15 02:31N 32°30' W 091°07'2 3.7
2017-Nov-15 02:01N 32°28' W 091°07'2 4.0
2017-Nov-15 01:31N 32°27' W 091°05'2 4.2
2017-Nov-15 01:01N 32°26' W 091°03'2 4.3
2017-Nov-15 00:31N 32°25' W 091°00'2 3.6
2017-Nov-15 00:01N 32°24' W 090°59'2 4.1
2017-Nov-14 23:31N 32°22' W 091°00'2 3.9
2017-Nov-14 23:01N 32°21' W 090°58'1 2.4
2017-Nov-14 22:31N 32°21' W 090°57'2 3.7
2017-Nov-14 22:01N 32°21' W 090°55'2 3.9
2017-Nov-14 21:31N 32°19' W 090°54'1 2.4
2017-Nov-14 21:01N 32°18' W 090°55'2 3.4
2017-Nov-14 20:31N 32°17' W 090°57'2 3.5
2017-Nov-14 20:01N 32°15' W 090°58'2 3.8
2017-Nov-14 19:31N 32°14' W 090°59'2 4.3
2017-Nov-14 19:01N 32°11' W 090°60'2 4.0
2017-Nov-14 18:27N 32°09' W 091°00'2 4.0
2017-Nov-14 18:00N 32°08' W 091°01'2 3.5
2017-Nov-14 17:30N 32°07' W 091°03'2 4.1
2017-Nov-14 16:59N 32°08' W 091°05'2 3.5
2017-Nov-14 16:31N 32°07' W 091°07'6 4.2
2017-Nov-14 15:08N 32°02' W 091°04'1 5.7
2017-Nov-14 14:59N 32°01' W 091°05'6 4.2
2017-Nov-14 13:35N 31°58' W 091°11'0 4.3
2017-Nov-14 13:31N 31°58' W 091°11'8 4.1
2017-Nov-14 11:28N 31°51' W 091°17'  
2017-Nov-09 19:26N 32°00' W 091°05'5 7.9
2017-Nov-09 18:51N 32°05' W 091°04'3 8.6
2017-Nov-09 18:31N 32°07' W 091°07'4 7.2
2017-Nov-09 18:00N 32°07' W 091°02'4 7.8
2017-Nov-09 17:31N 32°10' W 091°00'4 8.8
2017-Nov-09 17:01N 32°15' W 090°59'4 8.7
2017-Nov-09 16:31N 32°18' W 090°55'3 5.9
2017-Nov-09 16:01N 32°21' W 090°56'4 8.0
2017-Nov-09 15:31N 32°22' W 091°00'4 7.7
2017-Nov-09 15:01N 32°25' W 091°01'4 8.5
2017-Nov-09 14:31N 32°27' W 091°05'3 5.6
2017-Nov-09 14:01N 32°29' W 091°07'0 0.0
2017-Nov-09 13:30N 32°29' W 091°07'0 0.1
2017-Nov-09 13:01N 32°29' W 091°07'0 0.1
2017-Nov-09 12:31N 32°29' W 091°07'0 0.0
2017-Nov-09 12:01N 32°29' W 091°07'0 0.0
2017-Nov-09 11:31N 32°29' W 091°07'0 0.0
2017-Nov-09 11:01N 32°29' W 091°07'0 0.7
2017-Nov-09 10:31N 32°30' W 091°07'0 0.0
2017-Nov-09 10:01N 32°30' W 091°07'0 0.0
2017-Nov-09 09:29N 32°30' W 091°07'0 0.0
2017-Nov-09 09:01N 32°30' W 091°07'0 0.0
2017-Nov-09 08:31N 32°30' W 091°07'0 0.0
2017-Nov-09 08:01N 32°30' W 091°07'0 0.0
2017-Nov-09 07:31N 32°30' W 091°07'0 0.0
2017-Nov-09 07:00N 32°30' W 091°07'0 0.0
2017-Nov-09 06:31N 32°30' W 091°07'0 0.0
2017-Nov-09 06:01N 32°30' W 091°07'0 0.0
2017-Nov-09 05:30N 32°30' W 091°07'0 0.0
2017-Nov-09 05:01N 32°30' W 091°07'0 0.0
2017-Nov-09 04:31N 32°30' W 091°07'0 0.0
2017-Nov-09 04:00N 32°30' W 091°07'0 0.0
2017-Nov-09 03:28N 32°30' W 091°07'0 0.0
2017-Nov-09 03:00N 32°30' W 091°07'0 0.0
2017-Nov-09 02:31N 32°30' W 091°07'0 0.0
2017-Nov-09 02:01N 32°30' W 091°07'0 0.0
2017-Nov-09 01:30N 32°30' W 091°07'0 0.0
2017-Nov-09 01:01N 32°30' W 091°07'0 0.0
2017-Nov-09 00:31N 32°30' W 091°07'0 0.0
2017-Nov-09 00:01N 32°30' W 091°07'0 0.0
2017-Nov-08 23:31N 32°30' W 091°07'0 0.0
2017-Nov-08 23:01N 32°30' W 091°07'0 0.0
2017-Nov-08 22:31N 32°30' W 091°07'0 0.0
2017-Nov-08 22:01N 32°30' W 091°07'0 0.0
2017-Nov-08 21:31N 32°30' W 091°07'0 0.0
2017-Nov-08 21:01N 32°30' W 091°07'0 0.6
2017-Nov-08 20:31N 32°29' W 091°07'0 0.2
2017-Nov-08 20:01N 32°29' W 091°07'0 0.8
2017-Nov-08 19:31N 32°30' W 091°07'0 0.1
2017-Nov-08 19:01N 32°30' W 091°07'0 0.0
2017-Nov-08 18:31N 32°30' W 091°07'0 0.0
2017-Nov-08 18:01N 32°30' W 091°07'0 0.0
2017-Nov-08 17:31N 32°30' W 091°07'0 0.0
2017-Nov-08 17:00N 32°30' W 091°07'0 0.0
2017-Nov-08 16:31N 32°30' W 091°07'0 0.0
2017-Nov-08 16:01N 32°30' W 091°07'0 0.0
2017-Nov-08 15:31N 32°30' W 091°07'0 0.0
2017-Nov-08 15:01N 32°30' W 091°07'0 0.0
2017-Nov-08 14:31N 32°30' W 091°07'0 0.0
2017-Nov-08 14:01N 32°30' W 091°07'0 0.0
2017-Nov-08 13:31N 32°30' W 091°07'0 0.0
2017-Nov-08 13:01N 32°30' W 091°07'0 0.0
2017-Nov-08 12:31N 32°30' W 091°07'0 0.0
2017-Nov-08 12:01N 32°30' W 091°07'0 0.0
2017-Nov-08 11:31N 32°30' W 091°07'0 0.0
2017-Nov-08 11:01N 32°30' W 091°07'0 0.0
2017-Nov-08 10:31N 32°30' W 091°07'0 0.0
2017-Nov-08 10:01N 32°30' W 091°07'0 0.0
2017-Nov-08 09:31N 32°30' W 091°07'0 0.0
2017-Nov-08 09:00N 32°30' W 091°07'0 0.0
2017-Nov-08 08:31N 32°30' W 091°07'0 0.0
2017-Nov-08 08:01N 32°30' W 091°07'0 0.0
2017-Nov-08 07:31N 32°30' W 091°07'0 0.0
2017-Nov-08 07:01N 32°30' W 091°07'0 0.0
2017-Nov-08 06:31N 32°30' W 091°07'0 0.0
2017-Nov-08 06:01N 32°30' W 091°07'0 0.0
2017-Nov-08 05:31N 32°30' W 091°07'0 0.0
2017-Nov-08 05:01N 32°30' W 091°07'0 0.0
2017-Nov-08 04:31N 32°30' W 091°07'0 0.0
2017-Nov-08 04:01N 32°30' W 091°07'0 0.0
2017-Nov-08 03:31N 32°30' W 091°07'0 0.0
2017-Nov-08 03:01N 32°30' W 091°07'0 0.0
2017-Nov-08 02:31N 32°30' W 091°07'0 0.0
2017-Nov-08 02:01N 32°30' W 091°07'0 0.0
2017-Nov-08 01:31N 32°30' W 091°07'0 0.0
2017-Nov-08 01:01N 32°30' W 091°07'0 0.0
2017-Nov-08 00:31N 32°30' W 091°07'0 0.0
2017-Nov-08 00:01N 32°30' W 091°07'0 0.0
2017-Nov-07 23:30N 32°30' W 091°07'0 0.1
2017-Nov-07 23:00N 32°30' W 091°07'0 0.0
2017-Nov-07 22:31N 32°30' W 091°07'1 1.4
2017-Nov-07 22:01N 32°29' W 091°07'0 0.1
2017-Nov-07 21:30N 32°29' W 091°07'1 1.5
2017-Nov-07 21:01N 32°30' W 091°07'0 0.0
2017-Nov-07 20:31N 32°30' W 091°07'0 0.0
2017-Nov-07 20:01N 32°30' W 091°07'0 0.0
2017-Nov-07 19:31N 32°30' W 091°07'0 0.0
2017-Nov-07 19:00N 32°30' W 091°07'0 0.0
2017-Nov-07 18:31N 32°30' W 091°07'0 0.0
2017-Nov-07 18:00N 32°30' W 091°07'0 0.0
2017-Nov-07 17:31N 32°30' W 091°07'0 0.0
2017-Nov-07 17:01N 32°30' W 091°07'0 0.0
2017-Nov-07 16:31N 32°30' W 091°07'0 0.0
2017-Nov-07 16:01N 32°30' W 091°07'0 0.0
2017-Nov-07 15:31N 32°30' W 091°07'0 0.0
2017-Nov-07 15:01N 32°30' W 091°07'0 0.0
2017-Nov-07 14:31N 32°30' W 091°07'0 0.0
2017-Nov-07 14:01N 32°30' W 091°07'0 0.0
2017-Nov-07 13:30N 32°30' W 091°07'0 0.0
2017-Nov-07 13:01N 32°30' W 091°07'0 0.0
2017-Nov-07 12:31N 32°30' W 091°07'0 0.0
2017-Nov-07 12:01N 32°30' W 091°07'0 0.0
2017-Nov-07 11:31N 32°30' W 091°07'0 0.0
2017-Nov-07 11:00N 32°30' W 091°07'0 0.0
2017-Nov-07 10:31N 32°30' W 091°07'0 0.0
2017-Nov-07 10:01N 32°30' W 091°07'0 0.0
2017-Nov-07 09:30N 32°30' W 091°07'0 0.0
2017-Nov-07 09:01N 32°30' W 091°07'0 0.0
2017-Nov-07 08:31N 32°30' W 091°07'0 0.0
2017-Nov-07 08:01N 32°30' W 091°07'0 0.0
2017-Nov-07 07:31N 32°30' W 091°07'0 0.0
2017-Nov-07 07:01N 32°30' W 091°07'0 0.0
2017-Nov-07 06:30N 32°30' W 091°07'0 0.0
2017-Nov-07 06:00N 32°30' W 091°07'1 1.2
2017-Nov-07 05:31N 32°29' W 091°07'0 0.0
2017-Nov-07 05:01N 32°29' W 091°07'0 0.0
2017-Nov-07 04:31N 32°29' W 091°07'0 0.1
2017-Nov-07 04:01N 32°29' W 091°07'1 2.6
2017-Nov-07 03:30N 32°30' W 091°07'4 8.0
2017-Nov-07 03:00N 32°34' W 091°07'5 8.0
2017-Nov-07 02:22N 32°39' W 091°09'  

Dump ship's entire track history